createdAt,value
2022-07-25T17:54:09.841Z,99786.00
2022-07-25T17:56:37.959Z,99787.00
2022-07-25T17:59:05.413Z,99785.00
2022-07-25T18:01:32.531Z,99785.00
2022-07-25T18:03:59.608Z,99789.00
2022-07-25T18:06:29.890Z,99790.00
2022-07-25T18:08:57.865Z,99789.00
2022-07-25T18:11:25.061Z,99785.00
2022-07-25T18:13:52.001Z,99786.00
2022-07-25T18:16:19.297Z,99785.00
2022-07-25T18:18:46.408Z,99787.00
2022-07-25T18:21:13.467Z,99769.00
2022-07-25T18:23:40.539Z,99784.00
2022-07-25T18:26:08.953Z,99788.00
2022-07-25T18:28:36.919Z,99783.00
2022-07-25T18:31:04.626Z,99784.00
2022-07-25T18:33:31.846Z,99791.00
2022-07-25T18:36:01.781Z,99790.00
2022-07-25T18:38:31.749Z,99790.00
2022-07-25T18:41:19.275Z,99781.00
2022-07-25T18:43:45.774Z,99792.00
2022-07-25T18:46:15.781Z,99792.00
2022-07-25T18:48:44.457Z,99794.00
2022-07-25T18:51:12.209Z,99796.00
2022-07-25T18:53:39.234Z,99795.00
2022-07-25T18:56:06.624Z,99790.00
2022-07-25T18:58:33.639Z,99806.00
2022-07-25T19:01:02.786Z,99799.00
2022-07-25T19:03:32.735Z,99801.00
2022-07-25T19:06:03.473Z,99800.00
2022-07-25T19:08:30.961Z,99797.00
2022-07-25T19:10:57.914Z,99797.00
2022-07-25T19:13:47.705Z,99798.00
2022-07-25T19:16:12.134Z,99798.00
2022-07-25T19:18:40.118Z,99792.00
2022-07-25T19:21:07.583Z,99787.00
2022-07-25T19:23:34.887Z,99799.00
2022-07-25T19:26:02.855Z,99789.00
2022-07-25T19:28:30.002Z,99796.00
2022-07-25T19:30:57.429Z,99794.00
2022-07-25T19:33:24.627Z,99788.00
2022-07-25T19:35:52.479Z,99787.00
2022-07-25T19:38:20.038Z,99792.00
2022-07-25T19:40:47.529Z,99786.00
2022-07-25T19:43:15.270Z,99785.00
2022-07-25T19:45:42.450Z,99780.00
2022-07-25T19:48:09.642Z,99778.00
2022-07-25T19:50:36.593Z,99787.00
2022-07-25T19:53:03.618Z,99787.00
2022-07-25T19:55:30.688Z,99785.00
2022-07-25T19:57:57.752Z,99779.00
2022-07-25T20:00:26.272Z,99781.00
2022-07-25T20:02:53.360Z,99775.00
2022-07-25T20:05:20.595Z,99771.00
2022-07-25T20:07:48.089Z,99773.00
2022-07-25T20:10:18.079Z,99765.00
2022-07-25T20:12:45.194Z,99772.00
2022-07-25T20:15:12.274Z,99776.00
2022-07-25T20:17:39.773Z,99762.00
2022-07-25T20:20:08.196Z,99770.00
2022-07-25T20:22:39.354Z,99769.00
2022-07-25T20:25:09.033Z,99779.00
2022-07-25T20:27:36.187Z,99774.00
2022-07-25T20:30:07.309Z,99773.00
2022-07-25T20:32:34.538Z,99774.00
2022-07-25T20:35:01.943Z,99765.00
2022-07-25T20:37:28.990Z,99770.00
2022-07-25T20:39:56.435Z,99765.00
2022-07-25T20:42:23.465Z,99763.00
2022-07-25T20:44:50.572Z,99765.00
2022-07-25T20:47:17.720Z,99753.00
2022-07-25T20:49:44.886Z,99764.00
2022-07-25T20:52:12.067Z,99761.00
2022-07-25T20:54:39.992Z,99765.00
2022-07-25T20:57:06.985Z,99746.00
2022-07-25T20:59:34.036Z,99754.00
2022-07-25T21:02:01.080Z,99760.00
2022-07-25T21:04:28.110Z,99760.00
2022-07-25T21:06:56.595Z,99754.00
2022-07-25T21:09:23.799Z,99751.00
2022-07-25T21:11:50.931Z,99760.00
2022-07-25T21:14:17.932Z,99737.00
2022-07-25T21:16:46.041Z,99745.00
2022-07-25T21:19:13.239Z,99744.00
2022-07-25T21:21:40.474Z,99737.00
2022-07-25T21:24:13.010Z,99729.00
2022-07-25T21:26:43.345Z,99735.00
2022-07-25T21:29:11.248Z,99733.00
2022-07-25T21:31:43.408Z,99728.00
2022-07-25T21:34:13.013Z,99732.00
2022-07-25T21:36:50.371Z,99721.00
2022-07-25T21:39:20.039Z,99727.00
2022-07-25T21:41:54.911Z,99714.00
2022-07-25T21:44:26.692Z,99702.00
2022-07-25T21:46:56.757Z,99711.00
2022-07-25T21:49:45.304Z,99712.00
2022-07-25T21:52:14.235Z,99683.00
2022-07-25T21:54:44.737Z,99708.00
2022-07-25T21:57:18.097Z,99702.00
2022-07-25T21:59:48.291Z,99703.00
2022-07-25T22:02:23.874Z,99694.00
2022-07-25T22:04:51.456Z,99691.00
2022-07-25T22:07:22.832Z,99696.00
2022-07-25T22:09:49.943Z,99687.00
2022-07-25T22:12:25.674Z,99667.00
2022-07-25T22:14:58.780Z,99674.00
2022-07-25T22:17:28.593Z,99684.00
2022-07-25T22:20:15.654Z,99672.00
2022-07-25T22:22:42.814Z,99675.00
2022-07-25T22:25:10.377Z,99668.00
2022-07-25T22:27:40.169Z,99659.00
2022-07-25T22:30:16.461Z,99666.00
2022-07-25T22:32:48.810Z,99660.00
2022-07-25T22:35:16.796Z,99646.00
2022-07-25T22:37:48.187Z,99648.00
2022-07-25T22:40:15.467Z,99644.00
2022-07-25T22:42:44.040Z,99636.00
2022-07-25T22:45:11.739Z,99632.00
2022-07-25T22:47:44.121Z,99621.00
2022-07-25T22:50:16.242Z,99624.00
2022-07-25T22:52:43.773Z,99613.00
2022-07-25T22:55:15.464Z,99615.00
2022-07-25T22:57:42.557Z,99627.00
2022-07-25T23:00:20.377Z,99630.00
2022-07-25T23:02:47.629Z,99623.00
2022-07-25T23:05:17.346Z,99607.00
2022-07-25T23:07:52.088Z,99601.00
2022-07-25T23:10:19.350Z,99601.00
2022-07-25T23:12:46.936Z,99563.00
2022-07-25T23:15:16.310Z,99581.00
2022-07-25T23:17:43.332Z,99585.00
2022-07-25T23:20:11.592Z,99572.00
2022-07-25T23:22:38.550Z,99583.00
2022-07-25T23:25:06.998Z,99590.00
2022-07-25T23:27:34.887Z,99588.00
2022-07-25T23:30:07.360Z,99596.00
2022-07-25T23:32:34.715Z,99597.00
2022-07-25T23:35:01.777Z,99590.00
2022-07-25T23:40:13.865Z,99593.00
2022-07-25T23:42:40.885Z,99591.00
2022-07-25T23:47:55.797Z,99606.00
2022-07-25T23:50:23.879Z,99576.00
2022-07-25T23:52:51.582Z,99581.00
2022-07-25T23:55:18.867Z,99572.00
